sensor_id;sensor_type;location;lat;lon;timestamp;P1;durP1;ratioP1;P2;durP2;ratioP2
32445;SDS011;18899;50.748;7.102;2024-03-02T00:00:58;3.05;;;1.50;;
32445;SDS011;18899;50.748;7.102;2024-03-02T00:03:23;3.67;;;1.60;;
32445;SDS011;18899;50.748;7.102;2024-03-02T00:05:50;2.83;;;1.60;;
32445;SDS011;18899;50.748;7.102;2024-03-02T00:08:22;2.92;;;1.77;;
32445;SDS011;18899;50.748;7.102;2024-03-02T00:10:50;5.68;;;1.60;;
32445;SDS011;18899;50.748;7.102;2024-03-02T00:13:16;2.15;;;1.42;;
32445;SDS011;18899;50.748;7.102;2024-03-02T00:15:56;3.53;;;1.65;;
32445;SDS011;18899;50.748;7.102;2024-03-02T00:18:32;5.10;;;1.73;;
32445;SDS011;18899;50.748;7.102;2024-03-02T00:20:59;3.58;;;1.70;;
32445;SDS011;18899;50.748;7.102;2024-03-02T00:23:31;3.97;;;1.50;;
32445;SDS011;18899;50.748;7.102;2024-03-02T00:25:58;2.60;;;1.40;;
32445;SDS011;18899;50.748;7.102;2024-03-02T00:28:27;3.83;;;1.45;;
32445;SDS011;18899;50.748;7.102;2024-03-02T00:31:08;3.20;;;1.30;;
32445;SDS011;18899;50.748;7.102;2024-03-02T00:33:37;2.33;;;1.33;;
32445;SDS011;18899;50.748;7.102;2024-03-02T00:36:05;2.58;;;1.00;;
32445;SDS011;18899;50.748;7.102;2024-03-02T00:38:32;4.28;;;1.30;;
32445;SDS011;18899;50.748;7.102;2024-03-02T00:40:59;4.63;;;1.40;;
32445;SDS011;18899;50.748;7.102;2024-03-02T00:43:42;3.10;;;1.50;;
32445;SDS011;18899;50.748;7.102;2024-03-02T00:46:10;1.83;;;1.17;;
32445;SDS011;18899;50.748;7.102;2024-03-02T00:48:37;3.55;;;1.40;;
32445;SDS011;18899;50.748;7.102;2024-03-02T00:51:03;2.33;;;1.50;;
32445;SDS011;18899;50.748;7.102;2024-03-02T00:53:32;2.45;;;1.40;;
32445;SDS011;18899;50.748;7.102;2024-03-02T00:55:58;2.75;;;1.35;;
32445;SDS011;18899;50.748;7.102;2024-03-02T00:58:24;3.92;;;1.35;;
32445;SDS011;18899;50.748;7.102;2024-03-02T01:00:50;3.97;;;1.48;;
32445;SDS011;18899;50.748;7.102;2024-03-02T01:03:15;3.80;;;1.40;;
32445;SDS011;18899;50.748;7.102;2024-03-02T01:05:44;2.70;;;1.52;;
32445;SDS011;18899;50.748;7.102;2024-03-02T01:08:10;3.55;;;1.27;;
32445;SDS011;18899;50.748;7.102;2024-03-02T01:10:36;1.90;;;1.20;;
32445;SDS011;18899;50.748;7.102;2024-03-02T01:13:02;6.15;;;1.50;;
32445;SDS011;18899;50.748;7.102;2024-03-02T01:15:27;3.10;;;1.70;;
32445;SDS011;18899;50.748;7.102;2024-03-02T01:17:53;3.33;;;1.50;;
32445;SDS011;18899;50.748;7.102;2024-03-02T01:20:19;2.78;;;1.25;;
32445;SDS011;18899;50.748;7.102;2024-03-02T01:22:45;4.00;;;1.55;;
32445;SDS011;18899;50.748;7.102;2024-03-02T01:25:10;3.70;;;1.27;;
32445;SDS011;18899;50.748;7.102;2024-03-02T01:27:36;2.85;;;1.25;;
32445;SDS011;18899;50.748;7.102;2024-03-02T01:30:01;2.20;;;1.15;;
32445;SDS011;18899;50.748;7.102;2024-03-02T01:32:27;1.83;;;1.13;;
32445;SDS011;18899;50.748;7.102;2024-03-02T01:34:52;2.75;;;1.30;;
32445;SDS011;18899;50.748;7.102;2024-03-02T01:37:18;1.95;;;1.17;;
32445;SDS011;18899;50.748;7.102;2024-03-02T01:39:44;2.17;;;1.20;;
32445;SDS011;18899;50.748;7.102;2024-03-02T01:42:09;2.40;;;1.25;;
32445;SDS011;18899;50.748;7.102;2024-03-02T01:44:38;2.17;;;1.25;;
32445;SDS011;18899;50.748;7.102;2024-03-02T01:47:05;3.35;;;1.13;;
32445;SDS011;18899;50.748;7.102;2024-03-02T01:49:30;2.03;;;1.08;;
32445;SDS011;18899;50.748;7.102;2024-03-02T01:51:57;4.30;;;1.30;;
32445;SDS011;18899;50.748;7.102;2024-03-02T01:54:23;5.25;;;1.35;;
32445;SDS011;18899;50.748;7.102;2024-03-02T01:56:49;3.13;;;1.30;;
32445;SDS011;18899;50.748;7.102;2024-03-02T01:59:14;2.42;;;1.10;;
32445;SDS011;18899;50.748;7.102;2024-03-02T02:01:40;9.35;;;1.48;;
32445;SDS011;18899;50.748;7.102;2024-03-02T02:04:06;3.25;;;1.30;;
32445;SDS011;18899;50.748;7.102;2024-03-02T02:06:32;2.53;;;1.00;;
32445;SDS011;18899;50.748;7.102;2024-03-02T02:08:58;2.28;;;1.02;;
32445;SDS011;18899;50.748;7.102;2024-03-02T02:11:24;2.13;;;1.20;;
32445;SDS011;18899;50.748;7.102;2024-03-02T02:13:50;1.52;;;0.80;;
32445;SDS011;18899;50.748;7.102;2024-03-02T02:16:15;2.20;;;1.13;;
32445;SDS011;18899;50.748;7.102;2024-03-02T02:18:41;2.28;;;1.30;;
32445;SDS011;18899;50.748;7.102;2024-03-02T02:21:07;3.20;;;1.33;;
32445;SDS011;18899;50.748;7.102;2024-03-02T02:23:32;2.47;;;1.20;;
32445;SDS011;18899;50.748;7.102;2024-03-02T02:25:58;3.13;;;1.40;;
32445;SDS011;18899;50.748;7.102;2024-03-02T02:28:24;2.22;;;1.10;;
32445;SDS011;18899;50.748;7.102;2024-03-02T02:30:49;2.10;;;1.10;;
32445;SDS011;18899;50.748;7.102;2024-03-02T02:33:15;2.92;;;1.20;;
32445;SDS011;18899;50.748;7.102;2024-03-02T02:35:40;3.17;;;1.42;;
32445;SDS011;18899;50.748;7.102;2024-03-02T02:38:06;4.45;;;1.20;;
32445;SDS011;18899;50.748;7.102;2024-03-02T02:40:31;2.38;;;1.27;;
32445;SDS011;18899;50.748;7.102;2024-03-02T02:42:58;2.92;;;1.27;;
32445;SDS011;18899;50.748;7.102;2024-03-02T02:45:24;2.08;;;1.20;;
32445;SDS011;18899;50.748;7.102;2024-03-02T02:47:50;2.28;;;1.27;;
32445;SDS011;18899;50.748;7.102;2024-03-02T02:50:15;2.95;;;1.10;;
32445;SDS011;18899;50.748;7.102;2024-03-02T02:52:41;3.75;;;1.45;;
32445;SDS011;18899;50.748;7.102;2024-03-02T02:55:11;2.80;;;1.23;;
32445;SDS011;18899;50.748;7.102;2024-03-02T02:57:39;2.90;;;1.37;;
32445;SDS011;18899;50.748;7.102;2024-03-02T03:00:10;2.25;;;1.00;;
32445;SDS011;18899;50.748;7.102;2024-03-02T03:02:41;2.42;;;1.25;;
32445;SDS011;18899;50.748;7.102;2024-03-02T03:05:07;2.58;;;1.50;;
32445;SDS011;18899;50.748;7.102;2024-03-02T03:07:34;4.45;;;1.48;;
32445;SDS011;18899;50.748;7.102;2024-03-02T03:10:00;6.43;;;1.35;;
32445;SDS011;18899;50.748;7.102;2024-03-02T03:12:26;3.00;;;1.20;;
32445;SDS011;18899;50.748;7.102;2024-03-02T03:14:52;3.90;;;1.38;;
32445;SDS011;18899;50.748;7.102;2024-03-02T03:17:17;2.25;;;1.20;;
32445;SDS011;18899;50.748;7.102;2024-03-02T03:19:43;3.92;;;1.33;;
32445;SDS011;18899;50.748;7.102;2024-03-02T03:22:09;6.60;;;1.65;;
32445;SDS011;18899;50.748;7.102;2024-03-02T03:24:34;2.53;;;1.45;;
32445;SDS011;18899;50.748;7.102;2024-03-02T03:27:00;4.43;;;1.38;;
32445;SDS011;18899;50.748;7.102;2024-03-02T03:29:25;2.20;;;1.25;;
32445;SDS011;18899;50.748;7.102;2024-03-02T03:31:51;3.38;;;1.75;;
32445;SDS011;18899;50.748;7.102;2024-03-02T03:34:16;3.10;;;1.20;;
32445;SDS011;18899;50.748;7.102;2024-03-02T03:36:42;3.17;;;1.30;;
32445;SDS011;18899;50.748;7.102;2024-03-02T03:39:08;2.40;;;1.33;;
32445;SDS011;18899;50.748;7.102;2024-03-02T03:41:34;1.52;;;1.10;;
32445;SDS011;18899;50.748;7.102;2024-03-02T03:43:59;3.35;;;1.17;;
32445;SDS011;18899;50.748;7.102;2024-03-02T03:46:25;1.92;;;1.10;;
32445;SDS011;18899;50.748;7.102;2024-03-02T03:48:50;4.47;;;1.42;;
32445;SDS011;18899;50.748;7.102;2024-03-02T03:51:16;2.47;;;1.27;;
32445;SDS011;18899;50.748;7.102;2024-03-02T03:53:41;5.88;;;1.10;;
32445;SDS011;18899;50.748;7.102;2024-03-02T03:56:07;1.98;;;1.05;;
32445;SDS011;18899;50.748;7.102;2024-03-02T03:58:32;3.55;;;1.25;;
32445;SDS011;18899;50.748;7.102;2024-03-02T04:00:58;3.38;;;1.30;;
32445;SDS011;18899;50.748;7.102;2024-03-02T04:03:23;2.40;;;1.25;;
32445;SDS011;18899;50.748;7.102;2024-03-02T04:05:49;3.53;;;1.40;;
32445;SDS011;18899;50.748;7.102;2024-03-02T04:08:15;3.30;;;1.50;;
32445;SDS011;18899;50.748;7.102;2024-03-02T04:10:40;2.28;;;1.30;;
32445;SDS011;18899;50.748;7.102;2024-03-02T04:13:07;3.03;;;1.48;;
32445;SDS011;18899;50.748;7.102;2024-03-02T04:15:32;3.25;;;1.63;;
32445;SDS011;18899;50.748;7.102;2024-03-02T04:17:58;3.58;;;1.67;;
32445;SDS011;18899;50.748;7.102;2024-03-02T04:20:23;2.80;;;1.48;;
32445;SDS011;18899;50.748;7.102;2024-03-02T04:22:49;5.45;;;1.50;;
32445;SDS011;18899;50.748;7.102;2024-03-02T04:25:14;4.30;;;1.65;;
32445;SDS011;18899;50.748;7.102;2024-03-02T04:27:40;4.35;;;1.60;;
32445;SDS011;18899;50.748;7.102;2024-03-02T04:30:06;4.22;;;1.63;;
32445;SDS011;18899;50.748;7.102;2024-03-02T04:32:32;2.85;;;1.67;;
32445;SDS011;18899;50.748;7.102;2024-03-02T04:34:57;3.20;;;1.73;;
32445;SDS011;18899;50.748;7.102;2024-03-02T04:37:23;6.68;;;2.20;;
32445;SDS011;18899;50.748;7.102;2024-03-02T04:39:49;3.90;;;1.70;;
32445;SDS011;18899;50.748;7.102;2024-03-02T04:42:14;3.67;;;1.42;;
32445;SDS011;18899;50.748;7.102;2024-03-02T04:44:40;4.40;;;1.90;;
32445;SDS011;18899;50.748;7.102;2024-03-02T04:47:05;3.35;;;1.80;;
32445;SDS011;18899;50.748;7.102;2024-03-02T04:49:31;3.08;;;2.05;;
32445;SDS011;18899;50.748;7.102;2024-03-02T04:51:56;4.07;;;1.70;;
32445;SDS011;18899;50.748;7.102;2024-03-02T04:54:22;4.68;;;2.00;;
32445;SDS011;18899;50.748;7.102;2024-03-02T04:56:47;9.48;;;2.10;;
32445;SDS011;18899;50.748;7.102;2024-03-02T04:59:16;4.25;;;1.60;;
32445;SDS011;18899;50.748;7.102;2024-03-02T05:01:45;3.40;;;1.63;;
32445;SDS011;18899;50.748;7.102;2024-03-02T05:04:12;3.15;;;1.85;;
32445;SDS011;18899;50.748;7.102;2024-03-02T05:06:38;4.03;;;2.00;;
32445;SDS011;18899;50.748;7.102;2024-03-02T05:09:05;4.30;;;1.70;;
32445;SDS011;18899;50.748;7.102;2024-03-02T05:11:31;6.43;;;2.38;;
32445;SDS011;18899;50.748;7.102;2024-03-02T05:16:28;5.13;;;2.20;;
32445;SDS011;18899;50.748;7.102;2024-03-02T05:18:54;3.75;;;1.75;;
32445;SDS011;18899;50.748;7.102;2024-03-02T05:21:19;4.22;;;2.28;;
32445;SDS011;18899;50.748;7.102;2024-03-02T05:23:45;5.35;;;2.00;;
32445;SDS011;18899;50.748;7.102;2024-03-02T05:26:10;5.38;;;2.13;;
32445;SDS011;18899;50.748;7.102;2024-03-02T05:28:39;4.85;;;1.92;;
32445;SDS011;18899;50.748;7.102;2024-03-02T05:31:04;5.80;;;2.13;;
32445;SDS011;18899;50.748;7.102;2024-03-02T05:33:30;5.38;;;2.25;;
32445;SDS011;18899;50.748;7.102;2024-03-02T05:35:58;4.53;;;2.20;;
32445;SDS011;18899;50.748;7.102;2024-03-02T05:38:23;3.78;;;1.90;;
32445;SDS011;18899;50.748;7.102;2024-03-02T05:40:49;5.45;;;2.03;;
32445;SDS011;18899;50.748;7.102;2024-03-02T05:43:14;3.50;;;2.03;;
32445;SDS011;18899;50.748;7.102;2024-03-02T05:45:40;8.77;;;2.08;;
32445;SDS011;18899;50.748;7.102;2024-03-02T05:48:06;6.35;;;2.35;;
32445;SDS011;18899;50.748;7.102;2024-03-02T05:50:32;4.70;;;1.80;;
32445;SDS011;18899;50.748;7.102;2024-03-02T05:52:58;6.57;;;2.45;;
32445;SDS011;18899;50.748;7.102;2024-03-02T05:55:24;4.15;;;2.78;;
32445;SDS011;18899;50.748;7.102;2024-03-02T05:57:49;4.65;;;1.98;;
32445;SDS011;18899;50.748;7.102;2024-03-02T06:00:45;5.00;;;2.50;;
32445;SDS011;18899;50.748;7.102;2024-03-02T06:03:11;4.05;;;2.20;;
32445;SDS011;18899;50.748;7.102;2024-03-02T06:05:36;4.72;;;2.20;;
32445;SDS011;18899;50.748;7.102;2024-03-02T06:08:02;5.68;;;2.65;;
32445;SDS011;18899;50.748;7.102;2024-03-02T06:10:28;3.80;;;2.17;;
32445;SDS011;18899;50.748;7.102;2024-03-02T06:12:53;5.88;;;2.47;;
32445;SDS011;18899;50.748;7.102;2024-03-02T06:15:19;6.00;;;2.58;;
32445;SDS011;18899;50.748;7.102;2024-03-02T06:17:44;7.18;;;3.00;;
32445;SDS011;18899;50.748;7.102;2024-03-02T06:20:10;4.18;;;2.47;;
32445;SDS011;18899;50.748;7.102;2024-03-02T06:22:36;7.90;;;2.42;;
32445;SDS011;18899;50.748;7.102;2024-03-02T06:25:02;4.40;;;2.42;;
32445;SDS011;18899;50.748;7.102;2024-03-02T06:27:27;6.50;;;2.30;;
32445;SDS011;18899;50.748;7.102;2024-03-02T06:29:53;5.53;;;2.65;;
32445;SDS011;18899;50.748;7.102;2024-03-02T06:32:19;5.93;;;2.20;;
32445;SDS011;18899;50.748;7.102;2024-03-02T06:34:45;6.63;;;3.00;;
32445;SDS011;18899;50.748;7.102;2024-03-02T06:37:10;3.50;;;2.03;;
32445;SDS011;18899;50.748;7.102;2024-03-02T06:39:36;6.10;;;2.33;;
32445;SDS011;18899;50.748;7.102;2024-03-02T06:42:02;4.22;;;2.30;;
32445;SDS011;18899;50.748;7.102;2024-03-02T06:44:28;4.78;;;2.40;;
32445;SDS011;18899;50.748;7.102;2024-03-02T06:46:53;5.88;;;2.10;;
32445;SDS011;18899;50.748;7.102;2024-03-02T06:49:19;5.45;;;1.92;;
32445;SDS011;18899;50.748;7.102;2024-03-02T06:51:44;5.60;;;2.17;;
32445;SDS011;18899;50.748;7.102;2024-03-02T06:54:10;4.65;;;2.03;;
32445;SDS011;18899;50.748;7.102;2024-03-02T06:56:35;4.07;;;2.03;;
32445;SDS011;18899;50.748;7.102;2024-03-02T06:59:01;3.95;;;1.77;;
32445;SDS011;18899;50.748;7.102;2024-03-02T07:01:26;3.53;;;2.03;;
32445;SDS011;18899;50.748;7.102;2024-03-02T07:03:53;5.68;;;2.33;;
32445;SDS011;18899;50.748;7.102;2024-03-02T07:06:18;5.25;;;2.03;;
32445;SDS011;18899;50.748;7.102;2024-03-02T07:08:44;3.17;;;1.73;;
32445;SDS011;18899;50.748;7.102;2024-03-02T07:11:09;5.68;;;1.98;;
32445;SDS011;18899;50.748;7.102;2024-03-02T07:13:35;5.25;;;2.45;;
32445;SDS011;18899;50.748;7.102;2024-03-02T07:16:00;3.45;;;2.00;;
32445;SDS011;18899;50.748;7.102;2024-03-02T07:18:29;3.35;;;1.63;;
32445;SDS011;18899;50.748;7.102;2024-03-02T07:20:55;3.83;;;1.88;;
32445;SDS011;18899;50.748;7.102;2024-03-02T07:23:24;5.05;;;1.70;;
32445;SDS011;18899;50.748;7.102;2024-03-02T07:25:52;2.35;;;1.45;;
32445;SDS011;18899;50.748;7.102;2024-03-02T07:28:21;3.05;;;1.73;;
32445;SDS011;18899;50.748;7.102;2024-03-02T07:30:47;3.15;;;1.77;;
32445;SDS011;18899;50.748;7.102;2024-03-02T07:33:13;3.33;;;1.63;;
32445;SDS011;18899;50.748;7.102;2024-03-02T07:35:41;3.63;;;1.70;;
32445;SDS011;18899;50.748;7.102;2024-03-02T07:38:08;6.85;;;1.75;;
32445;SDS011;18899;50.748;7.102;2024-03-02T07:40:33;2.33;;;1.38;;
32445;SDS011;18899;50.748;7.102;2024-03-02T07:42:59;3.90;;;1.58;;
32445;SDS011;18899;50.748;7.102;2024-03-02T07:45:24;4.53;;;1.70;;
32445;SDS011;18899;50.748;7.102;2024-03-02T07:47:50;3.20;;;1.40;;
32445;SDS011;18899;50.748;7.102;2024-03-02T07:50:16;4.53;;;1.70;;
32445;SDS011;18899;50.748;7.102;2024-03-02T07:52:42;3.55;;;1.52;;
32445;SDS011;18899;50.748;7.102;2024-03-02T07:55:08;3.55;;;1.48;;
32445;SDS011;18899;50.748;7.102;2024-03-02T07:57:33;3.25;;;1.60;;
32445;SDS011;18899;50.748;7.102;2024-03-02T07:59:59;3.70;;;1.70;;
32445;SDS011;18899;50.748;7.102;2024-03-02T08:02:25;5.88;;;1.58;;
32445;SDS011;18899;50.748;7.102;2024-03-02T08:04:50;2.10;;;1.25;;
32445;SDS011;18899;50.748;7.102;2024-03-02T08:07:16;2.47;;;1.35;;
32445;SDS011;18899;50.748;7.102;2024-03-02T08:09:41;4.07;;;2.25;;
32445;SDS011;18899;50.748;7.102;2024-03-02T08:12:07;2.50;;;1.23;;
32445;SDS011;18899;50.748;7.102;2024-03-02T08:14:33;2.67;;;1.40;;
32445;SDS011;18899;50.748;7.102;2024-03-02T08:16:59;3.20;;;1.58;;
32445;SDS011;18899;50.748;7.102;2024-03-02T08:19:26;2.83;;;1.52;;
32445;SDS011;18899;50.748;7.102;2024-03-02T08:21:52;3.40;;;1.50;;
32445;SDS011;18899;50.748;7.102;2024-03-02T08:24:17;3.78;;;1.60;;
32445;SDS011;18899;50.748;7.102;2024-03-02T08:26:43;7.38;;;1.45;;
32445;SDS011;18899;50.748;7.102;2024-03-02T08:29:08;4.72;;;1.20;;
32445;SDS011;18899;50.748;7.102;2024-03-02T08:31:34;3.17;;;1.42;;
32445;SDS011;18899;50.748;7.102;2024-03-02T08:33:59;3.40;;;1.70;;
32445;SDS011;18899;50.748;7.102;2024-03-02T08:36:25;3.15;;;1.42;;
32445;SDS011;18899;50.748;7.102;2024-03-02T08:38:51;5.05;;;1.60;;
32445;SDS011;18899;50.748;7.102;2024-03-02T08:41:17;2.88;;;1.58;;
32445;SDS011;18899;50.748;7.102;2024-03-02T08:43:43;3.03;;;1.48;;
32445;SDS011;18899;50.748;7.102;2024-03-02T08:46:09;4.18;;;1.92;;
32445;SDS011;18899;50.748;7.102;2024-03-02T08:48:35;3.15;;;1.35;;
32445;SDS011;18899;50.748;7.102;2024-03-02T08:51:00;4.60;;;1.70;;
32445;SDS011;18899;50.748;7.102;2024-03-02T08:53:26;2.47;;;1.40;;
32445;SDS011;18899;50.748;7.102;2024-03-02T08:55:51;2.75;;;1.40;;
32445;SDS011;18899;50.748;7.102;2024-03-02T08:58:17;3.35;;;1.50;;
32445;SDS011;18899;50.748;7.102;2024-03-02T09:00:43;4.97;;;1.60;;
32445;SDS011;18899;50.748;7.102;2024-03-02T09:03:09;2.20;;;1.10;;
32445;SDS011;18899;50.748;7.102;2024-03-02T09:05:35;3.72;;;1.50;;
32445;SDS011;18899;50.748;7.102;2024-03-02T09:08:00;4.93;;;1.60;;
32445;SDS011;18899;50.748;7.102;2024-03-02T09:10:26;3.30;;;1.30;;
32445;SDS011;18899;50.748;7.102;2024-03-02T09:12:51;6.57;;;1.67;;
32445;SDS011;18899;50.748;7.102;2024-03-02T09:15:17;4.47;;;1.38;;
32445;SDS011;18899;50.748;7.102;2024-03-02T09:17:43;4.20;;;1.73;;
32445;SDS011;18899;50.748;7.102;2024-03-02T09:20:09;2.80;;;1.20;;
32445;SDS011;18899;50.748;7.102;2024-03-02T09:22:35;4.88;;;1.40;;
32445;SDS011;18899;50.748;7.102;2024-03-02T09:25:01;4.25;;;1.70;;
32445;SDS011;18899;50.748;7.102;2024-03-02T09:27:27;3.85;;;1.45;;
32445;SDS011;18899;50.748;7.102;2024-03-02T09:29:52;5.32;;;1.52;;
32445;SDS011;18899;50.748;7.102;2024-03-02T09:32:18;2.60;;;1.38;;
32445;SDS011;18899;50.748;7.102;2024-03-02T09:34:43;3.58;;;1.38;;
32445;SDS011;18899;50.748;7.102;2024-03-02T09:37:09;2.85;;;1.10;;
32445;SDS011;18899;50.748;7.102;2024-03-02T09:39:34;3.97;;;1.67;;
32445;SDS011;18899;50.748;7.102;2024-03-02T09:42:00;2.13;;;1.10;;
32445;SDS011;18899;50.748;7.102;2024-03-02T09:44:26;4.75;;;1.40;;
32445;SDS011;18899;50.748;7.102;2024-03-02T09:46:51;2.60;;;1.35;;
32445;SDS011;18899;50.748;7.102;2024-03-02T09:49:17;4.05;;;1.52;;
32445;SDS011;18899;50.748;7.102;2024-03-02T09:51:47;4.38;;;1.55;;
32445;SDS011;18899;50.748;7.102;2024-03-02T09:54:13;3.08;;;1.17;;
32445;SDS011;18899;50.748;7.102;2024-03-02T09:56:40;2.40;;;1.35;;
32445;SDS011;18899;50.748;7.102;2024-03-02T09:59:06;3.80;;;1.30;;
32445;SDS011;18899;50.748;7.102;2024-03-02T10:01:31;3.47;;;1.50;;
32445;SDS011;18899;50.748;7.102;2024-03-02T10:04:00;2.45;;;1.20;;
32445;SDS011;18899;50.748;7.102;2024-03-02T10:06:28;2.97;;;1.55;;
32445;SDS011;18899;50.748;7.102;2024-03-02T10:08:54;2.28;;;1.38;;
32445;SDS011;18899;50.748;7.102;2024-03-02T10:11:27;3.55;;;1.60;;
32445;SDS011;18899;50.748;7.102;2024-03-02T10:14:07;3.83;;;1.52;;
32445;SDS011;18899;50.748;7.102;2024-03-02T10:16:37;6.85;;;1.40;;
32445;SDS011;18899;50.748;7.102;2024-03-02T10:19:20;4.28;;;1.40;;
32445;SDS011;18899;50.748;7.102;2024-03-02T10:21:54;3.50;;;1.35;;
32445;SDS011;18899;50.748;7.102;2024-03-02T10:24:20;2.25;;;1.33;;
32445;SDS011;18899;50.748;7.102;2024-03-02T10:26:47;2.65;;;1.38;;
32445;SDS011;18899;50.748;7.102;2024-03-02T10:29:13;3.35;;;1.27;;
32445;SDS011;18899;50.748;7.102;2024-03-02T10:31:39;3.08;;;1.50;;
32445;SDS011;18899;50.748;7.102;2024-03-02T10:34:07;5.05;;;1.38;;
32445;SDS011;18899;50.748;7.102;2024-03-02T10:36:33;2.45;;;1.27;;
32445;SDS011;18899;50.748;7.102;2024-03-02T10:39:05;4.35;;;1.52;;
32445;SDS011;18899;50.748;7.102;2024-03-02T10:41:33;3.88;;;1.60;;
32445;SDS011;18899;50.748;7.102;2024-03-02T10:43:59;3.83;;;1.65;;
32445;SDS011;18899;50.748;7.102;2024-03-02T10:46:31;3.80;;;1.58;;
32445;SDS011;18899;50.748;7.102;2024-03-02T10:48:58;3.20;;;1.70;;
32445;SDS011;18899;50.748;7.102;2024-03-02T10:51:28;3.45;;;1.60;;
32445;SDS011;18899;50.748;7.102;2024-03-02T10:53:56;5.88;;;1.63;;
32445;SDS011;18899;50.748;7.102;2024-03-02T10:56:37;8.35;;;1.60;;
32445;SDS011;18899;50.748;7.102;2024-03-02T11:01:57;3.55;;;1.50;;
32445;SDS011;18899;50.748;7.102;2024-03-02T11:04:25;4.35;;;1.80;;
32445;SDS011;18899;50.748;7.102;2024-03-02T11:07:05;2.70;;;1.60;;
32445;SDS011;18899;50.748;7.102;2024-03-02T11:09:33;2.70;;;1.40;;
32445;SDS011;18899;50.748;7.102;2024-03-02T11:12:02;2.85;;;1.33;;
32445;SDS011;18899;50.748;7.102;2024-03-02T11:14:34;2.50;;;1.63;;
32445;SDS011;18899;50.748;7.102;2024-03-02T11:17:05;3.65;;;1.92;;
32445;SDS011;18899;50.748;7.102;2024-03-02T11:19:31;3.20;;;1.75;;
32445;SDS011;18899;50.748;7.102;2024-03-02T11:21:59;3.50;;;1.75;;
32445;SDS011;18899;50.748;7.102;2024-03-02T11:27:01;3.55;;;1.27;;
32445;SDS011;18899;50.748;7.102;2024-03-02T11:32:03;4.20;;;1.50;;
32445;SDS011;18899;50.748;7.102;2024-03-02T11:34:30;2.80;;;1.30;;
32445;SDS011;18899;50.748;7.102;2024-03-02T11:36:56;4.93;;;1.20;;
32445;SDS011;18899;50.748;7.102;2024-03-02T11:39:28;3.17;;;1.17;;
32445;SDS011;18899;50.748;7.102;2024-03-02T11:41:58;2.90;;;1.20;;
32445;SDS011;18899;50.748;7.102;2024-03-02T11:44:24;2.08;;;1.00;;
32445;SDS011;18899;50.748;7.102;2024-03-02T11:46:52;2.15;;;1.23;;
32445;SDS011;18899;50.748;7.102;2024-03-02T11:49:36;3.58;;;1.13;;
32445;SDS011;18899;50.748;7.102;2024-03-02T11:52:10;1.58;;;0.90;;
32445;SDS011;18899;50.748;7.102;2024-03-02T11:54:37;4.18;;;0.98;;
32445;SDS011;18899;50.748;7.102;2024-03-02T11:57:11;6.22;;;1.05;;
32445;SDS011;18899;50.748;7.102;2024-03-02T11:59:38;1.40;;;0.88;;
32445;SDS011;18899;50.748;7.102;2024-03-02T12:02:04;5.28;;;1.00;;
32445;SDS011;18899;50.748;7.102;2024-03-02T12:04:30;4.32;;;1.42;;
32445;SDS011;18899;50.748;7.102;2024-03-02T12:09:27;3.13;;;1.05;;
32445;SDS011;18899;50.748;7.102;2024-03-02T12:12:06;2.10;;;1.05;;
32445;SDS011;18899;50.748;7.102;2024-03-02T12:14:36;2.60;;;1.20;;
32445;SDS011;18899;50.748;7.102;2024-03-02T12:17:03;3.45;;;1.15;;
32445;SDS011;18899;50.748;7.102;2024-03-02T12:19:29;2.95;;;1.00;;
32445;SDS011;18899;50.748;7.102;2024-03-02T12:21:58;3.40;;;1.23;;
32445;SDS011;18899;50.748;7.102;2024-03-02T12:24:26;2.55;;;0.93;;
32445;SDS011;18899;50.748;7.102;2024-03-02T12:26:53;2.67;;;0.85;;
32445;SDS011;18899;50.748;7.102;2024-03-02T12:29:19;3.30;;;1.00;;
32445;SDS011;18899;50.748;7.102;2024-03-02T12:31:47;1.98;;;1.00;;
32445;SDS011;18899;50.748;7.102;2024-03-02T12:34:14;1.40;;;0.80;;
32445;SDS011;18899;50.748;7.102;2024-03-02T12:36:40;2.53;;;0.88;;
32445;SDS011;18899;50.748;7.102;2024-03-02T12:39:09;1.50;;;0.80;;
32445;SDS011;18899;50.748;7.102;2024-03-02T12:41:38;2.47;;;0.80;;
32445;SDS011;18899;50.748;7.102;2024-03-02T12:44:06;2.35;;;1.20;;
32445;SDS011;18899;50.748;7.102;2024-03-02T12:46:32;4.00;;;1.15;;
32445;SDS011;18899;50.748;7.102;2024-03-02T12:48:58;3.25;;;0.95;;
32445;SDS011;18899;50.748;7.102;2024-03-02T12:51:27;6.03;;;1.20;;
32445;SDS011;18899;50.748;7.102;2024-03-02T12:53:56;0.90;;;0.60;;
32445;SDS011;18899;50.748;7.102;2024-03-02T12:56:23;1.60;;;0.60;;
32445;SDS011;18899;50.748;7.102;2024-03-02T12:58:53;2.67;;;0.85;;
32445;SDS011;18899;50.748;7.102;2024-03-02T13:01:19;1.77;;;0.77;;
32445;SDS011;18899;50.748;7.102;2024-03-02T13:03:45;1.48;;;0.73;;
32445;SDS011;18899;50.748;7.102;2024-03-02T13:06:12;2.40;;;0.77;;
32445;SDS011;18899;50.748;7.102;2024-03-02T13:08:38;3.08;;;0.90;;
32445;SDS011;18899;50.748;7.102;2024-03-02T13:11:04;3.33;;;0.93;;
32445;SDS011;18899;50.748;7.102;2024-03-02T13:13:31;3.35;;;0.90;;
32445;SDS011;18899;50.748;7.102;2024-03-02T13:15:58;2.58;;;0.75;;
32445;SDS011;18899;50.748;7.102;2024-03-02T13:18:23;2.67;;;0.68;;
32445;SDS011;18899;50.748;7.102;2024-03-02T13:20:49;1.10;;;0.70;;
32445;SDS011;18899;50.748;7.102;2024-03-02T13:23:14;5.50;;;0.95;;
32445;SDS011;18899;50.748;7.102;2024-03-02T13:25:40;6.20;;;1.00;;
32445;SDS011;18899;50.748;7.102;2024-03-02T13:28:06;1.77;;;1.00;;
32445;SDS011;18899;50.748;7.102;2024-03-02T13:30:32;2.63;;;1.08;;
32445;SDS011;18899;50.748;7.102;2024-03-02T13:32:58;1.83;;;0.88;;
32445;SDS011;18899;50.748;7.102;2024-03-02T13:35:23;1.90;;;0.98;;
32445;SDS011;18899;50.748;7.102;2024-03-02T13:37:49;2.58;;;1.10;;
32445;SDS011;18899;50.748;7.102;2024-03-02T13:40:15;2.17;;;0.85;;
32445;SDS011;18899;50.748;7.102;2024-03-02T13:42:45;1.98;;;1.10;;
32445;SDS011;18899;50.748;7.102;2024-03-02T13:45:11;2.38;;;0.85;;
32445;SDS011;18899;50.748;7.102;2024-03-02T13:47:37;1.80;;;0.93;;
32445;SDS011;18899;50.748;7.102;2024-03-02T13:50:02;2.00;;;0.80;;
32445;SDS011;18899;50.748;7.102;2024-03-02T13:52:30;1.85;;;0.82;;
32445;SDS011;18899;50.748;7.102;2024-03-02T13:54:55;2.25;;;0.73;;
32445;SDS011;18899;50.748;7.102;2024-03-02T13:57:21;2.42;;;0.70;;
32445;SDS011;18899;50.748;7.102;2024-03-02T13:59:46;2.80;;;0.95;;
32445;SDS011;18899;50.748;7.102;2024-03-02T14:02:12;3.95;;;1.23;;
32445;SDS011;18899;50.748;7.102;2024-03-02T14:04:38;2.55;;;0.70;;
32445;SDS011;18899;50.748;7.102;2024-03-02T14:07:04;3.35;;;0.88;;
32445;SDS011;18899;50.748;7.102;2024-03-02T14:09:33;1.70;;;0.70;;
32445;SDS011;18899;50.748;7.102;2024-03-02T14:11:59;2.05;;;0.80;;
32445;SDS011;18899;50.748;7.102;2024-03-02T14:14:27;1.27;;;0.73;;
32445;SDS011;18899;50.748;7.102;2024-03-02T14:16:53;2.00;;;0.80;;
32445;SDS011;18899;50.748;7.102;2024-03-02T14:19:20;1.85;;;0.90;;
32445;SDS011;18899;50.748;7.102;2024-03-02T14:21:46;1.38;;;0.88;;
32445;SDS011;18899;50.748;7.102;2024-03-02T14:24:12;1.95;;;0.75;;
32445;SDS011;18899;50.748;7.102;2024-03-02T14:26:38;2.22;;;0.68;;
32445;SDS011;18899;50.748;7.102;2024-03-02T14:29:04;2.17;;;0.80;;
32445;SDS011;18899;50.748;7.102;2024-03-02T14:31:30;2.05;;;0.75;;
32445;SDS011;18899;50.748;7.102;2024-03-02T14:33:56;1.92;;;0.90;;
32445;SDS011;18899;50.748;7.102;2024-03-02T14:36:22;1.70;;;0.80;;
32445;SDS011;18899;50.748;7.102;2024-03-02T14:38:48;1.30;;;0.90;;
32445;SDS011;18899;50.748;7.102;2024-03-02T14:41:14;3.83;;;1.00;;
32445;SDS011;18899;50.748;7.102;2024-03-02T14:43:39;2.25;;;1.00;;
32445;SDS011;18899;50.748;7.102;2024-03-02T14:46:05;1.98;;;1.05;;
32445;SDS011;18899;50.748;7.102;2024-03-02T14:48:33;2.20;;;1.15;;
32445;SDS011;18899;50.748;7.102;2024-03-02T14:50:59;1.70;;;0.98;;
32445;SDS011;18899;50.748;7.102;2024-03-02T14:53:25;4.13;;;1.05;;
32445;SDS011;18899;50.748;7.102;2024-03-02T14:55:50;1.90;;;0.80;;
32445;SDS011;18899;50.748;7.102;2024-03-02T14:58:16;1.35;;;0.88;;